Time;durP1;ratioP1;P1;durP2;ratioP2;P2;SDS_P1;SDS_P2;PMS_P1;PMS_P2;Temp;Humidity;BMP_temperature;BMP_pressure;BME280_temperature;BME280_humidity;BME280_pressure;Samples;Min_cycle;Max_cycle;Signal;HPM_P1;HPM_P2
2023/05/05 00:00:55;;;;;;;8.80;3.67;;;;;;;;;;5108638;28;20042;-62
2023/05/05 00:03:21;;;;;;;7.63;3.40;;;;;;;;;;5106910;28;20405;-62
2023/05/05 00:05:47;;;;;;;8.05;3.95;;;18.40;78.40;;;;;;5091586;28;20304;-62
2023/05/05 00:08:14;;;;;;;9.18;3.67;;;;;;;;;;5073204;28;20083;-62
2023/05/05 00:10:41;;;;;;;8.20;4.07;;;;;;;;;;5109147;28;20039;-62
2023/05/05 00:13:07;;;;;;;8.18;3.80;;;18.90;77.20;;;;;;5088485;28;20043;-63
2023/05/05 00:15:33;;;;;;;6.47;3.65;;;18.60;80.90;;;;;;5102249;28;20112;-62
2023/05/05 00:17:59;;;;;;;7.88;3.83;;;;;;;;;;5109754;28;20082;-62
2023/05/05 00:20:25;;;;;;;8.23;3.60;;;18.40;77.60;;;;;;5108261;28;20044;-62
2023/05/05 00:22:51;;;;;;;7.32;3.78;;;18.60;81.00;;;;;;5111552;28;20039;-62
2023/05/05 00:25:17;;;;;;;8.80;3.55;;;18.50;80.90;;;;;;5107055;28;20075;-62
2023/05/05 00:27:43;;;;;;;11.65;4.07;;;;;;;;;;5110970;28;20054;-64
2023/05/05 00:30:09;;;;;;;9.13;3.75;;;;;;;;;;5085767;28;20554;-62
2023/05/05 00:32:35;;;;;;;9.55;4.10;;;18.70;77.40;;;;;;5109368;28;20050;-64
2023/05/05 00:35:01;;;;;;;6.40;3.40;;;;;;;;;;5111486;28;20043;-62
2023/05/05 00:37:27;;;;;;;10.65;3.85;;;;;;;;;;5092638;28;20048;-62
2023/05/05 00:39:54;;;;;;;8.98;4.38;;;;;;;;;;5111040;28;20031;-61
2023/05/05 00:42:20;;;;;;;9.25;3.60;;;;;;;;;;5086880;28;20063;-64
2023/05/05 00:44:46;;;;;;;7.75;3.75;;;;;;;;;;5109475;28;20043;-62
2023/05/05 00:47:12;;;;;;;8.65;3.78;;;18.50;80.90;;;;;;5109961;28;20119;-62
2023/05/05 00:49:38;;;;;;;9.05;3.78;;;18.50;80.90;;;;;;5092219;28;20138;-62
2023/05/05 00:52:04;;;;;;;7.43;3.75;;;18.30;80.80;;;;;;5109122;28;20047;-62
2023/05/05 00:54:30;;;;;;;9.43;3.75;;;;;;;;;;5108852;28;20131;-64
2023/05/05 00:56:56;;;;;;;7.25;3.83;;;18.40;78.30;;;;;;5073867;28;20400;-62
2023/05/05 00:59:22;;;;;;;5.57;3.22;;;;;;;;;;5104448;28;20040;-62
2023/05/05 01:01:47;;;;;;;9.45;3.70;;;18.40;80.90;;;;;;5109109;28;20044;-61
2023/05/05 01:04:13;;;;;;;8.80;3.90;;;18.20;80.70;;;;;;5108622;28;20488;-61
2023/05/05 01:06:58;;;;;;;10.80;4.10;;;;;;;;;;5108062;28;20690;-64
2023/05/05 01:09:40;;;;;;;14.20;4.80;;;18.60;76.50;;;;;;5105704;28;20079;-62
2023/05/05 01:12:45;;;;;;;9.05;3.80;;;18.30;76.80;;;;;;5108414;28;20067;-66
2023/05/05 01:15:33;;;;;;;8.60;3.72;;;18.30;76.70;;;;;;5109060;28;20086;-64
2023/05/05 01:18:29;;;;;;;8.43;3.67;;;18.10;76.50;;;;;;5101144;28;20044;-61
2023/05/05 01:21:05;;;;;;;7.35;3.60;;;18.40;78.10;;;;;;5091276;28;20036;-62
2023/05/05 01:23:32;;;;;;;7.40;3.88;;;;;;;;;;5074930;28;20420;-67
2023/05/05 01:25:58;;;;;;;8.23;3.80;;;;;;;;;;5108813;28;20325;-66
2023/05/05 01:28:55;;;;;;;7.75;4.00;;;18.50;78.20;;;;;;5108679;28;20040;-67
2023/05/05 01:31:59;;;;;;;7.88;3.90;;;18.40;78.20;;;;;;5089354;28;20099;-66
2023/05/05 01:34:31;;;;;;;8.93;3.70;;;18.10;80.50;;;;;;5108804;28;20108;-64
2023/05/05 01:37:15;;;;;;;7.50;4.00;;;18.20;76.60;;;;;;5090804;28;20048;-66
2023/05/05 01:39:42;;;;;;;10.55;4.50;;;;;;;;;;5108391;28;21751;-68
2023/05/05 01:42:12;;;;;;;7.30;3.88;;;18.00;77.50;;;;;;5074149;28;20058;-65
2023/05/05 01:44:37;;;;;;;9.68;3.80;;;18.30;80.70;;;;;;5109464;28;20054;-68
2023/05/05 01:47:03;;;;;;;7.13;3.60;;;18.20;80.70;;;;;;5107361;28;20052;-66
2023/05/05 01:49:29;;;;;;;6.90;3.60;;;18.30;80.80;;;;;;5108525;28;20046;-66
2023/05/05 01:51:56;;;;;;;8.45;3.60;;;;;;;;;;5089557;28;20088;-67
2023/05/05 01:54:23;;;;;;;9.23;3.78;;;;;;;;;;5107095;28;20043;-67
2023/05/05 01:56:49;;;;;;;7.35;3.90;;;;;;;;;;5090860;28;20497;-66
2023/05/05 01:59:15;;;;;;;6.65;3.53;;;;;;;;;;5090104;28;20574;-67
2023/05/05 02:01:43;;;;;;;7.95;3.72;;;17.80;80.40;;;;;;5106152;28;20032;-67
2023/05/05 02:04:09;;;;;;;8.25;3.80;;;;;;;;;;5090418;28;20172;-67
2023/05/05 02:06:35;;;;;;;10.30;4.03;;;;;;;;;;5112952;28;20059;-67
2023/05/05 02:09:02;;;;;;;8.77;3.70;;;18.10;79.50;;;;;;5074038;28;20556;-66
2023/05/05 02:11:28;;;;;;;7.95;3.83;;;;;;;;;;5094105;28;20484;-67
2023/05/05 02:13:54;;;;;;;8.55;3.53;;;;;;;;;;5092853;28;20075;-66
2023/05/05 02:16:21;;;;;;;6.38;3.53;;;18.20;79.60;;;;;;5078598;28;20062;-66
2023/05/05 02:18:46;;;;;;;8.00;4.20;;;18.40;78.10;;;;;;5096199;28;20083;-67
2023/05/05 02:21:13;;;;;;;9.70;3.95;;;18.30;79.40;;;;;;5094314;28;21711;-65
2023/05/05 02:23:39;;;;;;;7.15;3.35;;;18.00;79.80;;;;;;5094728;28;20118;-62
2023/05/05 02:26:06;;;;;;;13.43;4.15;;;18.30;77.60;;;;;;5094665;28;20189;-66
2023/05/05 02:28:44;;;;;;;10.60;3.80;;;18.20;76.50;;;;;;5112446;28;20401;-64
2023/05/05 02:31:09;;;;;;;8.50;3.50;;;18.10;79.90;;;;;;5108846;28;20039;-65
2023/05/05 02:33:35;;;;;;;8.65;3.78;;;;;;;;;;5111659;28;20096;-66
2023/05/05 02:36:10;;;;;;;7.63;3.60;;;18.10;77.70;;;;;;5094450;28;20039;-62
2023/05/05 02:38:36;;;;;;;8.07;4.05;;;18.10;80.60;;;;;;5111251;28;20040;-61
2023/05/05 02:41:02;;;;;;;7.30;3.47;;;;;;;;;;5107202;28;20098;-65
2023/05/05 02:43:29;;;;;;;6.75;3.70;;;;;;;;;;5113170;28;20078;-61
2023/05/05 02:45:55;;;;;;;7.97;3.45;;;;;;;;;;5111798;28;20044;-61
2023/05/05 02:48:21;;;;;;;8.10;3.22;;;18.20;80.60;;;;;;5110305;28;20051;-61
2023/05/05 02:50:47;;;;;;;6.72;3.53;;;18.20;77.70;;;;;;5111841;28;20043;-64
2023/05/05 02:53:12;;;;;;;7.53;3.88;;;18.20;80.40;;;;;;5109733;28;20476;-61
2023/05/05 02:55:52;;;;;;;8.63;3.88;;;17.80;80.30;;;;;;5111995;28;20096;-61
2023/05/05 02:58:30;;;;;;;6.95;3.20;;;18.20;76.00;;;;;;5110591;28;20054;-60
2023/05/05 03:01:17;;;;;;;6.32;3.33;;;18.00;80.40;;;;;;5094886;28;20079;-61
2023/05/05 03:03:46;;;;;;;8.48;3.80;;;18.00;80.50;;;;;;5109873;28;20039;-61
2023/05/05 03:06:20;;;;;;;8.38;3.75;;;;;;;;;;5092349;28;20043;-61
2023/05/05 03:09:05;;;;;;;8.40;3.65;;;;;;;;;;5091313;28;20108;-64
2023/05/05 03:11:46;;;;;;;11.50;4.07;;;18.10;76.00;;;;;;5093814;28;20053;-63
2023/05/05 03:14:18;;;;;;;7.15;3.28;;;17.90;77.20;;;;;;5088917;28;20054;-62
2023/05/05 03:16:44;;;;;;;8.85;3.63;;;18.10;78.00;;;;;;5091735;28;20039;-62
2023/05/05 03:19:10;;;;;;;5.85;3.28;;;;;;;;;;5108179;28;20050;-62
2023/05/05 03:21:37;;;;;;;7.75;3.80;;;;;;;;;;5113024;28;20370;-62
2023/05/05 03:24:14;;;;;;;7.57;3.80;;;18.20;77.30;;;;;;5110970;28;20042;-60
2023/05/05 03:26:40;;;;;;;6.75;3.30;;;;;;;;;;5109590;28;20065;-60
2023/05/05 03:29:06;;;;;;;6.72;3.33;;;;;;;;;;5109679;28;20054;-62
2023/05/05 03:31:32;;;;;;;8.07;3.42;;;;;;;;;;5111380;28;20085;-64
2023/05/05 03:33:58;;;;;;;7.68;2.92;;;18.20;80.30;;;;;;5106085;28;20369;-61
2023/05/05 03:36:24;;;;;;;8.57;3.85;;;18.20;80.40;;;;;;5108066;28;20119;-61
2023/05/05 03:38:50;;;;;;;7.75;3.20;;;;;;;;;;5111255;28;20526;-61
2023/05/05 03:41:16;;;;;;;7.05;3.60;;;;;;;;;;5110923;28;20519;-65
2023/05/05 03:43:42;;;;;;;8.38;3.47;;;;;;;;;;5109719;28;20397;-64
2023/05/05 03:46:09;;;;;;;8.20;3.60;;;;;;;;;;5110198;28;20493;-64
2023/05/05 03:48:35;;;;;;;7.05;3.25;;;;;;;;;;5108695;28;20040;-60
2023/05/05 03:51:00;;;;;;;8.05;3.53;;;18.30;78.40;;;;;;5111045;28;20073;-62
2023/05/05 03:53:27;;;;;;;9.10;3.33;;;;;;;;;;5091264;28;20466;-64
2023/05/05 03:55:52;;;;;;;8.30;3.40;;;18.20;78.20;;;;;;5110791;28;20104;-62
2023/05/05 03:58:18;;;;;;;8.55;3.47;;;18.40;80.00;;;;;;5106736;28;20036;-62
2023/05/05 04:00:44;;;;;;;8.10;3.88;;;;;;;;;;5109508;28;20039;-62
2023/05/05 04:03:10;;;;;;;10.52;3.67;;;18.60;80.30;;;;;;5111256;28;20040;-62
2023/05/05 04:05:36;;;;;;;8.38;3.30;;;;;;;;;;5107329;28;20040;-62
2023/05/05 04:08:02;;;;;;;7.43;3.22;;;;;;;;;;5107187;28;20043;-64
2023/05/05 04:10:28;;;;;;;6.95;3.30;;;17.90;75.60;;;;;;5109325;28;20035;-62
2023/05/05 04:12:55;;;;;;;8.02;3.25;;;;;;;;;;5109571;28;20165;-61
2023/05/05 04:15:20;;;;;;;6.50;3.10;;;18.30;79.90;;;;;;5110975;28;20032;-62
2023/05/05 04:17:46;;;;;;;7.53;3.28;;;;;;;;;;5110586;28;20493;-63
2023/05/05 04:20:12;;;;;;;8.70;3.05;;;18.50;80.00;;;;;;5076948;28;20048;-61
2023/05/05 04:22:38;;;;;;;7.32;3.80;;;;;;;;;;5110505;28;20168;-65
2023/05/05 04:25:05;;;;;;;8.60;3.38;;;18.30;75.70;;;;;;5072112;28;20474;-65
2023/05/05 04:27:31;;;;;;;5.50;3.30;;;18.50;78.90;;;;;;5107711;28;20042;-62
2023/05/05 04:29:57;;;;;;;8.88;3.42;;;18.60;79.80;;;;;;5110984;28;20400;-61
2023/05/05 04:32:23;;;;;;;7.63;2.90;;;;;;;;;;5111543;28;20055;-65
2023/05/05 04:34:49;;;;;;;5.43;3.00;;;;;;;;;;5107660;28;20052;-63
2023/05/05 04:37:15;;;;;;;6.47;3.05;;;;;;;;;;5090039;28;20040;-61
2023/05/05 04:39:41;;;;;;;6.32;3.28;;;;;;;;;;5108028;28;20392;-61
2023/05/05 04:42:07;;;;;;;6.50;3.20;;;18.40;79.80;;;;;;5103770;28;20055;-61
2023/05/05 04:44:34;;;;;;;7.07;2.97;;;;;;;;;;5107861;28;20071;-66
2023/05/05 04:47:00;;;;;;;6.85;3.33;;;18.70;77.20;;;;;;5110093;28;20061;-63
2023/05/05 04:49:28;;;;;;;7.60;3.20;;;18.80;79.90;;;;;;5110719;28;20036;-61
2023/05/05 04:51:54;;;;;;;6.15;3.05;;;18.70;79.80;;;;;;5092735;28;20035;-62
2023/05/05 04:54:20;;;;;;;7.28;3.08;;;;;;;;;;5107013;28;20050;-63
2023/05/05 04:56:46;;;;;;;6.75;3.15;;;18.90;79.70;;;;;;5107333;28;20118;-60
2023/05/05 04:59:13;;;;;;;8.35;3.20;;;;;;;;;;5088770;28;20134;-64
2023/05/05 05:01:39;;;;;;;6.72;3.05;;;;;;;;;;5107581;28;20350;-65
2023/05/05 05:04:06;;;;;;;7.32;3.25;;;18.40;77.40;;;;;;5090358;28;20047;-63
2023/05/05 05:06:32;;;;;;;8.90;3.55;;;18.70;79.00;;;;;;5109427;28;20036;-62
2023/05/05 05:08:58;;;;;;;6.68;2.80;;;;;;;;;;5108796;28;20036;-61
2023/05/05 05:11:24;;;;;;;5.93;3.00;;;;;;;;;;5073603;28;20389;-62
2023/05/05 05:13:50;;;;;;;6.05;2.95;;;;;;;;;;5089471;28;20047;-60
2023/05/05 05:16:16;;;;;;;6.32;3.30;;;18.70;78.50;;;;;;5109067;28;20040;-61
2023/05/05 05:18:42;;;;;;;6.47;3.22;;;;;;;;;;5107923;28;20059;-65
2023/05/05 05:21:09;;;;;;;7.03;3.47;;;18.80;79.80;;;;;;5088199;28;20077;-65
2023/05/05 05:23:35;;;;;;;6.20;2.83;;;;;;;;;;5104265;28;20035;-61
2023/05/05 05:26:01;;;;;;;7.15;3.30;;;;;;;;;;5106557;28;20039;-63
2023/05/05 05:28:27;;;;;;;6.97;3.35;;;18.90;80.10;;;;;;5089114;28;20156;-66
2023/05/05 05:30:53;;;;;;;12.40;3.80;;;18.70;76.10;;;;;;5106983;28;20036;-63
2023/05/05 05:33:18;;;;;;;10.52;4.10;;;18.80;80.10;;;;;;5102159;28;20048;-61
2023/05/05 05:35:44;;;;;;;15.05;4.07;;;18.60;77.00;;;;;;5101704;28;20092;-61
2023/05/05 05:38:10;;;;;;;13.07;3.60;;;18.70;77.10;;;;;;5102556;28;20062;-62
2023/05/05 05:40:36;;;;;;;9.27;3.78;;;18.60;80.10;;;;;;5108140;28;20079;-60
2023/05/05 05:43:03;;;;;;;10.48;3.53;;;18.60;78.10;;;;;;5110553;28;20071;-63
2023/05/05 05:45:28;;;;;;;12.80;3.67;;;18.70;80.30;;;;;;5090322;28;20500;-62
2023/05/05 05:47:55;;;;;;;9.18;3.30;;;;;;;;;;5106293;28;20041;-62
2023/05/05 05:50:20;;;;;;;8.07;3.45;;;18.70;78.90;;;;;;5090770;28;20046;-62
2023/05/05 05:52:47;;;;;;;9.60;3.65;;;;;;;;;;5108969;28;20044;-61
2023/05/05 05:55:13;;;;;;;8.45;3.50;;;18.70;79.70;;;;;;5091276;28;20052;-62
2023/05/05 05:57:39;;;;;;;9.27;3.72;;;18.30;80.60;;;;;;5094643;28;20039;-62
2023/05/05 06:00:06;;;;;;;9.35;3.42;;;18.70;80.40;;;;;;5106590;28;20088;-61
2023/05/05 06:02:32;;;;;;;9.43;4.28;;;;;;;;;;5089131;28;20044;-63
2023/05/05 06:04:58;;;;;;;7.78;3.20;;;18.30;80.90;;;;;;5103641;28;20044;-62
2023/05/05 06:07:25;;;;;;;8.70;3.50;;;;;;;;;;5071586;28;20047;-62
2023/05/05 06:09:51;;;;;;;6.93;3.47;;;;;;;;;;5105753;28;20051;-62
2023/05/05 06:12:17;;;;;;;8.57;3.42;;;18.50;81.00;;;;;;5109182;28;20135;-62
2023/05/05 06:14:43;;;;;;;6.35;3.30;;;;;;;;;;5073876;28;20130;-64
2023/05/05 06:17:09;;;;;;;8.90;3.22;;;;;;;;;;5091159;28;20047;-63
2023/05/05 06:19:38;;;;;;;7.97;3.90;;;18.40;80.60;;;;;;5107551;28;20169;-62
2023/05/05 06:22:04;;;;;;;6.90;3.83;;;18.60;81.20;;;;;;5089902;28;20067;-62
2023/05/05 06:24:31;;;;;;;8.60;3.10;;;;;;;;;;5106804;28;20067;-62
2023/05/05 06:26:58;;;;;;;6.28;3.08;;;18.60;81.20;;;;;;5107925;28;20047;-64
2023/05/05 06:29:24;;;;;;;7.82;3.50;;;18.50;77.20;;;;;;5111929;28;20052;-62
2023/05/05 06:31:50;;;;;;;6.10;3.38;;;18.50;78.20;;;;;;5109201;28;20039;-62
2023/05/05 06:34:17;;;;;;;11.75;3.47;;;18.70;81.00;;;;;;5073219;28;20491;-62
2023/05/05 06:36:42;;;;;;;8.57;3.58;;;18.60;78.00;;;;;;5102862;28;20070;-62
2023/05/05 06:39:09;;;;;;;6.53;3.10;;;;;;;;;;5103662;28;20089;-63
2023/05/05 06:41:35;;;;;;;8.95;3.15;;;;;;;;;;5089755;28;20048;-63
2023/05/05 06:44:01;;;;;;;8.43;3.20;;;;;;;;;;5089044;28;20090;-62
2023/05/05 06:46:27;;;;;;;9.57;3.10;;;18.80;81.20;;;;;;5105441;28;20043;-63
2023/05/05 06:48:53;;;;;;;7.43;3.25;;;;;;;;;;5089431;28;20043;-63
2023/05/05 06:51:21;;;;;;;5.43;2.97;;;;;;;;;;5086483;28;20126;-63
2023/05/05 06:53:47;;;;;;;5.93;3.13;;;18.70;81.00;;;;;;5105525;28;20048;-61
2023/05/05 06:56:13;;;;;;;7.97;3.40;;;;;;;;;;5104478;28;20035;-63
2023/05/05 06:58:40;;;;;;;5.63;3.22;;;18.80;80.80;;;;;;5090596;28;20044;-64
2023/05/05 07:01:05;;;;;;;7.97;3.92;;;18.80;78.80;;;;;;5100801;28;20040;-63
2023/05/05 07:03:32;;;;;;;6.78;3.38;;;;;;;;;;5098676;28;20100;-65
2023/05/05 07:05:58;;;;;;;6.38;3.20;;;;;;;;;;5101518;28;20054;-64
2023/05/05 07:08:24;;;;;;;8.85;3.65;;;18.90;81.10;;;;;;5086093;28;20149;-63
2023/05/05 07:10:50;;;;;;;8.20;3.70;;;;;;;;;;5082017;28;20079;-62
2023/05/05 07:13:16;;;;;;;6.55;3.63;;;;;;;;;;5106617;28;20096;-63
2023/05/05 07:15:45;;;;;;;5.95;3.03;;;;;;;;;;5083651;28;20405;-63
2023/05/05 07:18:14;;;;;;;6.93;4.00;;;18.60;80.90;;;;;;5105823;28;20064;-65
2023/05/05 07:20:41;;;;;;;8.07;3.72;;;;;;;;;;5107972;28;20047;-64
2023/05/05 07:23:07;;;;;;;6.82;3.30;;;;;;;;;;5091076;28;20172;-65
2023/05/05 07:25:33;;;;;;;6.07;3.00;;;;;;;;;;5088634;28;20035;-66
2023/05/05 07:27:59;;;;;;;9.00;3.80;;;18.90;80.40;;;;;;5071624;28;20493;-65
2023/05/05 07:30:25;;;;;;;8.63;3.70;;;18.50;77.80;;;;;;5105614;28;20047;-63
2023/05/05 07:32:51;;;;;;;8.32;4.20;;;18.80;79.10;;;;;;5106833;28;20059;-65
2023/05/05 07:35:17;;;;;;;8.82;4.03;;;18.90;81.10;;;;;;5091935;28;20047;-65
2023/05/05 07:37:46;;;;;;;6.72;3.35;;;;;;;;;;5104530;28;20484;-63
2023/05/05 07:40:12;;;;;;;7.65;3.97;;;;;;;;;;5089688;28;20047;-64
2023/05/05 07:42:38;;;;;;;8.52;4.45;;;18.80;78.70;;;;;;5090169;28;20089;-62
2023/05/05 07:45:05;;;;;;;7.68;4.28;;;19.20;77.80;;;;;;5106581;28;20584;-65
2023/05/05 07:47:31;;;;;;;9.07;3.90;;;;;;;;;;5090400;28;20412;-65
2023/05/05 07:49:57;;;;;;;7.47;4.05;;;19.30;81.10;;;;;;5087314;28;20050;-63
2023/05/05 07:52:23;;;;;;;9.93;3.95;;;19.40;81.00;;;;;;5105658;28;20480;-65
2023/05/05 07:54:49;;;;;;;8.85;3.90;;;;;;;;;;5107968;28;20047;-65
2023/05/05 07:57:15;;;;;;;7.85;3.53;;;19.80;79.70;;;;;;5091000;28;20043;-65
2023/05/05 07:59:42;;;;;;;10.15;4.40;;;;;;;;;;5088357;28;20039;-64
2023/05/05 08:02:12;;;;;;;8.18;4.03;;;19.90;79.90;;;;;;5087557;28;20373;-65
2023/05/05 08:04:41;;;;;;;9.90;4.10;;;20.10;76.90;;;;;;5051609;28;20136;-63
2023/05/05 08:07:07;;;;;;;7.45;3.75;;;;;;;;;;5103813;28;20043;-61
2023/05/05 08:09:34;;;;;;;9.45;3.95;;;;;;;;;;5105358;28;20040;-65
2023/05/05 08:12:01;;;;;;;6.80;3.60;;;20.40;79.50;;;;;;5104210;28;20050;-64
2023/05/05 08:14:27;;;;;;;7.40;3.80;;;20.40;79.30;;;;;;5105664;28;20050;-66
2023/05/05 08:16:53;;;;;;;8.52;3.92;;;20.40;79.10;;;;;;5088178;28;20069;-68
2023/05/05 08:19:19;;;;;;;8.20;4.05;;;20.60;79.20;;;;;;5090766;28;20480;-62
2023/05/05 08:21:45;;;;;;;7.72;3.60;;;;;;;;;;5103497;28;20060;-65
2023/05/05 08:24:11;;;;;;;8.65;4.20;;;20.90;77.70;;;;;;5102412;28;20042;-64
2023/05/05 08:26:37;;;;;;;10.15;3.83;;;;;;;;;;5104645;28;20122;-66
2023/05/05 08:29:03;;;;;;;9.27;3.90;;;;;;;;;;5105059;28;20035;-64
2023/05/05 08:31:32;;;;;;;6.88;4.07;;;21.10;78.50;;;;;;5105003;28;20047;-64
2023/05/05 08:33:58;;;;;;;7.35;3.53;;;;;;;;;;5086855;28;20094;-62
2023/05/05 08:36:24;;;;;;;9.10;3.70;;;21.40;78.10;;;;;;5106562;28;20047;-61
2023/05/05 08:38:50;;;;;;;7.50;3.42;;;;;;;;;;5107126;28;20062;-66
2023/05/05 08:41:19;;;;;;;9.65;3.92;;;21.50;76.00;;;;;;5065619;28;20062;-65
2023/05/05 08:43:46;;;;;;;8.35;3.30;;;21.50;75.00;;;;;;5088098;28;20043;-66
2023/05/05 08:46:12;;;;;;;6.85;3.90;;;;;;;;;;5102231;28;20056;-62
2023/05/05 08:48:42;;;;;;;6.10;3.47;;;21.80;78.20;;;;;;5105035;28;20046;-61
2023/05/05 08:51:19;;;;;;;6.57;3.67;;;21.40;77.90;;;;;;5103475;28;20043;-60
2023/05/05 08:53:53;;;;;;;7.78;3.70;;;21.60;77.60;;;;;;5104987;28;20046;-63
2023/05/05 08:56:23;;;;;;;8.77;3.72;;;21.60;75.90;;;;;;5090400;28;20040;-64
2023/05/05 08:58:49;;;;;;;12.52;4.07;;;21.70;75.50;;;;;;5091092;28;20047;-67
2023/05/05 09:01:16;;;;;;;9.95;3.47;;;22.50;74.90;;;;;;5105226;28;20036;-62
2023/05/05 09:03:41;;;;;;;10.73;4.30;;;21.80;77.90;;;;;;5085113;28;20036;-61
2023/05/05 09:06:08;;;;;;;10.65;4.00;;;;;;;;;;5100135;28;20050;-68
2023/05/05 09:08:34;;;;;;;11.00;4.30;;;;;;;;;;5088672;28;20369;-69
2023/05/05 09:11:01;;;;;;;13.02;4.85;;;;;;;;;;5102200;28;20040;-69
2023/05/05 09:13:29;;;;;;;10.63;4.82;;;21.80;78.10;;;;;;5098600;28;20464;-68
2023/05/05 09:15:55;;;;;;;11.68;5.05;;;;;;;;;;5103218;28;20096;-67
2023/05/05 09:18:21;;;;;;;11.52;4.97;;;;;;;;;;5112018;28;20051;-62
2023/05/05 09:20:48;;;;;;;8.45;4.80;;;;;;;;;;5105321;28;20481;-63
2023/05/05 09:23:22;;;;;;;10.68;5.45;;;22.00;78.30;;;;;;5103140;28;20039;-68
2023/05/05 09:26:08;;;;;;;10.82;4.93;;;21.90;78.20;;;;;;5088931;28;20477;-68
2023/05/05 09:28:36;;;;;;;9.45;5.10;;;;;;;;;;5103385;28;20790;-67
2023/05/05 09:31:14;;;;;;;7.57;4.60;;;21.80;73.50;;;;;;5084915;28;20101;-67
2023/05/05 09:33:40;;;;;;;11.50;5.45;;;;;;;;;;5104282;28;20043;-65
2023/05/05 09:36:07;;;;;;;10.07;5.55;;;;;;;;;;5104250;28;20434;-67
2023/05/05 09:38:34;;;;;;;11.18;5.32;;;21.90;78.40;;;;;;5088177;28;20130;-66
2023/05/05 09:40:59;;;;;;;9.80;5.55;;;22.00;78.60;;;;;;5092030;28;20086;-65
2023/05/05 09:43:25;;;;;;;12.25;5.95;;;21.60;78.60;;;;;;5086734;28;20084;-62
2023/05/05 09:45:52;;;;;;;13.73;7.47;;;;;;;;;;5089936;28;20079;-70
2023/05/05 09:48:25;;;;;;;12.88;6.70;;;21.80;79.00;;;;;;5086923;28;20097;-62
2023/05/05 09:50:50;;;;;;;12.70;6.95;;;21.90;79.20;;;;;;5091745;28;20043;-62
2023/05/05 09:53:17;;;;;;;12.10;6.55;;;;;;;;;;5082579;28;20050;-63
2023/05/05 09:55:55;;;;;;;14.60;6.93;;;22.00;79.10;;;;;;5087646;28;20076;-62
2023/05/05 09:58:23;;;;;;;12.55;7.20;;;22.00;79.50;;;;;;5089963;28;20043;-61
2023/05/05 10:00:49;;;;;;;9.90;6.60;;;22.00;79.40;;;;;;5092360;28;20083;-68
2023/05/05 10:03:15;;;;;;;14.27;6.75;;;22.20;79.60;;;;;;5087390;28;20040;-67
2023/05/05 10:05:54;;;;;;;10.80;6.68;;;22.00;79.50;;;;;;5092489;28;20050;-68
2023/05/05 10:08:22;;;;;;;10.90;6.10;;;22.10;79.60;;;;;;5091683;28;20078;-62
2023/05/05 10:10:56;;;;;;;11.57;6.68;;;21.90;79.50;;;;;;5092866;28;20110;-62
2023/05/05 10:13:23;;;;;;;10.68;7.22;;;22.30;79.80;;;;;;5087951;28;20453;-61
2023/05/05 10:15:50;;;;;;;9.82;6.88;;;21.90;79.70;;;;;;5083139;28;20493;-62
2023/05/05 10:18:26;;;;;;;12.40;6.88;;;21.90;76.60;;;;;;5081520;28;20045;-66
2023/05/05 10:20:57;;;;;;;11.60;6.93;;;22.10;75.40;;;;;;5085474;28;20050;-66
2023/05/05 10:23:23;;;;;;;11.32;6.65;;;21.90;77.00;;;;;;5075250;28;20058;-67
2023/05/05 10:25:54;;;;;;;14.45;7.25;;;21.90;76.90;;;;;;5085718;28;20050;-62
2023/05/05 10:28:30;;;;;;;16.48;7.25;;;22.00;80.10;;;;;;5078950;28;20055;-68
2023/05/05 10:30:57;;;;;;;12.85;7.20;;;22.10;78.50;;;;;;5086920;28;20048;-70
2023/05/05 10:33:33;;;;;;;12.35;6.90;;;22.10;80.40;;;;;;5073596;28;20048;-70
2023/05/05 10:36:04;;;;;;;13.45;6.57;;;22.20;79.60;;;;;;5092251;28;20085;-70
2023/05/05 10:38:29;;;;;;;17.23;6.70;;;22.00;80.30;;;;;;5090580;28;20489;-68
2023/05/05 10:40:56;;;;;;;12.43;6.75;;;22.40;76.80;;;;;;5075404;28;20051;-69
2023/05/05 10:43:22;;;;;;;19.27;6.55;;;21.90;79.90;;;;;;5077471;28;20051;-70
2023/05/05 10:45:48;;;;;;;21.13;6.32;;;22.30;78.40;;;;;;5095709;28;20034;-71
2023/05/05 10:48:18;;;;;;;12.48;6.32;;;22.20;77.30;;;;;;5094735;28;20051;-69
2023/05/05 10:50:49;;;;;;;12.60;5.72;;;22.30;76.00;;;;;;5105751;28;20066;-70
2023/05/05 10:53:30;;;;;;;12.27;6.47;;;22.20;80.50;;;;;;5095181;28;20055;-70
2023/05/05 10:56:05;;;;;;;12.07;6.05;;;22.10;78.20;;;;;;5110128;28;20179;-70
2023/05/05 10:58:37;;;;;;;10.75;6.00;;;22.40;80.40;;;;;;5110004;28;20040;-66
2023/05/05 11:01:04;;;;;;;14.20;6.28;;;22.30;80.50;;;;;;5111364;28;20036;-69
2023/05/05 11:03:30;;;;;;;15.63;6.07;;;22.30;80.50;;;;;;5110171;28;20047;-68
2023/05/05 11:06:07;;;;;;;9.93;6.10;;;22.40;80.60;;;;;;5113536;28;20165;-70
2023/05/05 11:08:34;;;;;;;12.05;5.60;;;;;;;;;;5110367;28;20051;-67
2023/05/05 11:11:00;;;;;;;9.57;5.72;;;22.20;76.80;;;;;;5093080;28;20043;-68
2023/05/05 11:13:26;;;;;;;10.27;6.13;;;22.30;77.50;;;;;;5111612;28;20043;-66
2023/05/05 11:15:53;;;;;;;9.48;5.88;;;;;;;;;;5112941;28;20100;-68
2023/05/05 11:18:29;;;;;;;8.43;5.30;;;22.30;77.50;;;;;;5113268;28;20051;-67
2023/05/05 11:20:58;;;;;;;8.93;5.60;;;22.20;77.70;;;;;;5107713;28;20461;-68
2023/05/05 11:23:24;;;;;;;9.25;5.50;;;22.50;78.40;;;;;;5112923;28;20054;-69
2023/05/05 11:25:54;;;;;;;10.50;5.25;;;22.20;78.40;;;;;;5111091;28;20043;-69
2023/05/05 11:28:23;;;;;;;9.85;5.70;;;22.40;80.70;;;;;;5102143;28;20048;-69
2023/05/05 11:30:55;;;;;;;8.90;5.93;;;22.20;76.60;;;;;;5092918;28;20987;-69
2023/05/05 11:33:28;;;;;;;8.90;5.82;;;22.20;80.50;;;;;;5091290;28;20089;-68
2023/05/05 11:35:54;;;;;;;;;;;22.30;78.00;;;;;;5111842;28;20097;-69
2023/05/05 11:38:39;;;;;;;9.63;6.10;;;22.30;77.30;;;;;;5108476;28;20675;-68
2023/05/05 11:41:12;;;;;;;7.00;5.57;;;22.30;80.50;;;;;;5076791;28;20042;-70
2023/05/05 11:43:38;;;;;;;10.13;6.30;;;22.60;80.50;;;;;;5109272;28;20063;-69
2023/05/05 11:46:14;;;;;;;9.30;6.20;;;22.70;78.50;;;;;;5108824;28;20059;-69
2023/05/05 11:48:46;;;;;;;11.00;6.15;;;22.70;80.60;;;;;;5090108;28;20149;-68
2023/05/05 11:51:13;;;;;;;12.45;7.32;;;22.60;80.50;;;;;;5092238;28;20374;-69
2023/05/05 11:53:46;;;;;;;8.18;5.90;;;22.30;80.40;;;;;;5110142;28;20456;-68
2023/05/05 11:56:20;;;;;;;10.63;5.93;;;22.40;76.40;;;;;;5108922;28;20043;-69
2023/05/05 11:58:46;;;;;;;8.98;6.10;;;22.50;80.50;;;;;;5078211;28;20064;-69
2023/05/05 12:01:12;;;;;;;11.45;6.07;;;22.60;80.50;;;;;;5083477;28;20101;-69
2023/05/05 12:03:38;;;;;;;7.95;5.63;;;22.30;80.30;;;;;;5106842;28;20040;-68
2023/05/05 12:06:07;;;;;;;8.95;5.80;;;22.50;80.50;;;;;;5093593;28;20046;-68
2023/05/05 12:08:36;;;;;;;9.05;5.85;;;22.60;80.60;;;;;;5108186;28;20051;-69
2023/05/05 12:11:03;;;;;;;8.23;5.75;;;22.50;77.60;;;;;;5074957;28;20047;-69
2023/05/05 12:13:29;;;;;;;8.75;5.45;;;22.30;80.40;;;;;;5108667;28;20047;-70
2023/05/05 12:15:55;;;;;;;7.93;5.57;;;22.60;80.60;;;;;;5110005;28;20097;-71
2023/05/05 12:18:21;;;;;;;8.18;5.40;;;22.50;77.20;;;;;;5105914;28;20078;-68
2023/05/05 12:20:47;;;;;;;8.43;6.07;;;;;;;;;;5105388;28;20481;-67
2023/05/05 12:23:13;;;;;;;8.27;5.95;;;;;;;;;;5109981;28;20035;-70
2023/05/05 12:25:39;;;;;;;8.90;6.43;;;22.70;77.80;;;;;;5108552;28;20490;-70
2023/05/05 12:28:08;;;;;;;9.20;6.40;;;22.60;75.80;;;;;;5108213;28;20048;-70
2023/05/05 12:30:34;;;;;;;9.15;6.25;;;22.80;80.60;;;;;;5108588;28;20481;-70
2023/05/05 12:33:04;;;;;;;7.13;5.07;;;22.80;80.60;;;;;;5106858;28;20044;-69
2023/05/05 12:35:30;;;;;;;9.05;6.05;;;22.70;80.70;;;;;;5108351;28;20039;-70
2023/05/05 12:37:57;;;;;;;9.35;5.80;;;;;;;;;;5089136;28;20055;-70
2023/05/05 12:40:45;;;;;;;8.60;5.88;;;22.60;76.00;;;;;;5088653;28;20600;-67
2023/05/05 12:43:24;;;;;;;9.30;6.00;;;22.50;79.50;;;;;;5108943;28;20139;-68
2023/05/05 12:46:04;;;;;;;10.60;6.80;;;22.40;77.90;;;;;;5092068;28;20074;-66
2023/05/05 12:48:30;;;;;;;10.00;6.30;;;22.40;80.60;;;;;;5099078;28;20031;-65
2023/05/05 12:51:21;;;;;;;8.98;6.47;;;22.60;80.70;;;;;;5111100;28;20043;-65
2023/05/05 12:53:48;;;;;;;9.88;6.38;;;22.60;80.80;;;;;;5102947;28;20065;-65
2023/05/05 12:56:33;;;;;;;8.85;6.20;;;22.60;80.80;;;;;;5110719;28;20052;-64
2023/05/05 12:59:00;;;;;;;8.32;6.07;;;22.30;76.80;;;;;;5107708;28;20077;-64
2023/05/05 13:01:27;;;;;;;9.70;6.75;;;22.40;77.10;;;;;;5106631;28;20165;-65
2023/05/05 13:04:06;;;;;;;9.48;6.22;;;22.20;80.80;;;;;;5111435;28;20036;-65
2023/05/05 13:06:33;;;;;;;11.57;6.55;;;;;;;;;;5106302;28;20138;-65
2023/05/05 13:08:58;;;;;;;10.10;6.43;;;22.30;80.90;;;;;;5107088;28;20043;-68
2023/05/05 13:11:25;;;;;;;8.32;6.40;;;;;;;;;;5102663;28;20085;-65
2023/05/05 13:13:50;;;;;;;8.60;6.63;;;22.30;81.10;;;;;;5103144;28;20040;-67
2023/05/05 13:16:17;;;;;;;12.57;7.10;;;;;;;;;;5109623;28;20048;-65
2023/05/05 13:18:46;;;;;;;9.68;7.93;;;22.10;81.20;;;;;;5102810;28;20100;-64
2023/05/05 13:21:12;;;;;;;11.55;8.07;;;22.00;79.80;;;;;;5108065;28;20381;-65
2023/05/05 13:23:41;;;;;;;11.20;7.70;;;22.20;81.40;;;;;;5107795;28;20138;-68
2023/05/05 13:26:07;;;;;;;9.10;7.43;;;;;;;;;;5085621;28;20376;-64
2023/05/05 13:28:33;;;;;;;13.80;8.20;;;;;;;;;;5086543;28;20511;-67